Airfield :
LOGIN :

Register | Disclaimer

   EN    FR    IT 

 










Legend :    VFR   Marginal VFR   IFR   Intensive IFR   Very Intensive IFR
Visi :
Ceiling :
>= 8 km
>= 3000ft
5 to 8 km
1000 to 3000 ft
1500m to 5 km
500 to 1000 ft
800 to 1500m
200 to 500 ft
< 800m
< 200 ft
Symbols :   Thunderstorms  Fog  Heavy snow  Heavy precipitations  Wind > 20 kt
SIGMETs :     Misc.  Thunderstorms  Icing  Turbulence  Mountain Waves  Volcanic Ashes







- Airport Elevation : 1273 ft
- IATA code : LJU


LJLJ - Ljubljana

CURRENT METAR :
  • 170730Z 08003KT 040V100 9999 FEW060 22/16 Q1021 NOSIG

EXPIRED METARs :
  • 170700Z 01001KT 9999 FEW060 21/16 Q1021 NOSIG
  • 170630Z VRB03KT 9999 FEW060 19/15 Q1021 NOSIG
  • 170600Z VRB02KT CAVOK 18/16 Q1021 NOSIG
  • 170530Z 00000KT CAVOK 17/15 Q1021 NOSIG
  • 170500Z 00000KT CAVOK 16/14 Q1021 NOSIG

TAF TAF LJLJ
Valid from the 17 at 06:00 until the 18 at 06:00 UTC


170500Z 1706/1806 31003KT 9999 SCT050 BKN140
BECMG 1708/1711 12005KT SCT050
PROB30
TEMPO 1713/1717 SHRA SCT050TCU
BECMG 1718/1720 VRB02KT
No reported NOTAMs for that airfield.



MET'MAP, your aeronautical weather chart ! - Copyright ORBIFLY December 2007 - Disclaimer

ORBIFLY MET'MAP TEAM :

Programming & Development : Alexandra Zaïnal
Concept & Development : Baudouin d'Aumeries
Co-Development & Prog : Marc-Olivier Méhu
Technical & hardware support : Manuel Goepfert

Contact : metmap@orbifly.com




SOURCES & CREDITS :

   NOAA